sensor_id;sensor_type;location;lat;lon;timestamp;temperature;humidity
17007;DHT22;8620;51.168;4.154;2023-04-25T07:01:41;11.20;99.90
17007;DHT22;8620;51.168;4.154;2023-04-25T07:04:47;11.20;99.90
17007;DHT22;8620;51.168;4.154;2023-04-25T07:07:36;11.50;99.90
17007;DHT22;8620;51.168;4.154;2023-04-25T07:10:02;11.50;99.90
17007;DHT22;8620;51.168;4.154;2023-04-25T07:12:28;11.50;99.90
17007;DHT22;8620;51.168;4.154;2023-04-25T07:14:54;11.40;99.90
17007;DHT22;8620;51.168;4.154;2023-04-25T07:17:57;11.30;99.90
17007;DHT22;8620;51.168;4.154;2023-04-25T07:20:34;12.10;99.90
17007;DHT22;8620;51.168;4.154;2023-04-25T07:23:38;13.20;99.90
17007;DHT22;8620;51.168;4.154;2023-04-25T07:26:13;14.40;99.90
17007;DHT22;8620;51.168;4.154;2023-04-25T07:29:18;16.10;99.90
17007;DHT22;8620;51.168;4.154;2023-04-25T07:32:19;17.20;99.90
17007;DHT22;8620;51.168;4.154;2023-04-25T07:34:57;17.10;99.90
17007;DHT22;8620;51.168;4.154;2023-04-25T07:37:23;16.30;99.90
17007;DHT22;8620;51.168;4.154;2023-04-25T07:39:51;16.40;99.90
17007;DHT22;8620;51.168;4.154;2023-04-25T07:42:17;17.00;99.90
17007;DHT22;8620;51.168;4.154;2023-04-25T07:44:43;16.80;99.90
17007;DHT22;8620;51.168;4.154;2023-04-25T07:47:12;16.60;99.90
17007;DHT22;8620;51.168;4.154;2023-04-25T07:49:41;15.30;99.90
17007;DHT22;8620;51.168;4.154;2023-04-25T07:52:40;16.00;99.90
17007;DHT22;8620;51.168;4.154;2023-04-25T07:55:06;16.80;99.90
17007;DHT22;8620;51.168;4.154;2023-04-25T07:58:10;15.70;99.90
17007;DHT22;8620;51.168;4.154;2023-04-25T08:00:48;14.90;99.90
17007;DHT22;8620;51.168;4.154;2023-04-25T08:03:49;14.10;99.90
17007;DHT22;8620;51.168;4.154;2023-04-25T08:06:17;12.90;99.90
17007;DHT22;8620;51.168;4.154;2023-04-25T08:09:01;12.30;99.90
17007;DHT22;8620;51.168;4.154;2023-04-25T08:11:28;11.60;99.90
17007;DHT22;8620;51.168;4.154;2023-04-25T08:13:54;11.40;99.90
17007;DHT22;8620;51.168;4.154;2023-04-25T08:16:20;11.40;99.90
17007;DHT22;8620;51.168;4.154;2023-04-25T08:18:47;11.30;99.90
17007;DHT22;8620;51.168;4.154;2023-04-25T08:21:16;11.20;99.90
17007;DHT22;8620;51.168;4.154;2023-04-25T08:23:42;11.00;99.90
17007;DHT22;8620;51.168;4.154;2023-04-25T08:26:08;10.90;99.90
17007;DHT22;8620;51.168;4.154;2023-04-25T08:28:34;10.90;99.90
17007;DHT22;8620;51.168;4.154;2023-04-25T08:33:51;10.80;99.90
17007;DHT22;8620;51.168;4.154;2023-04-25T08:36:17;10.80;99.90
17007;DHT22;8620;51.168;4.154;2023-04-25T08:38:44;11.10;99.90
17007;DHT22;8620;51.168;4.154;2023-04-25T08:41:11;11.30;99.90
17007;DHT22;8620;51.168;4.154;2023-04-25T08:43:39;11.70;99.90
17007;DHT22;8620;51.168;4.154;2023-04-25T08:46:08;11.70;99.90
17007;DHT22;8620;51.168;4.154;2023-04-25T08:48:34;12.10;99.90
17007;DHT22;8620;51.168;4.154;2023-04-25T08:51:02;12.20;99.90
17007;DHT22;8620;51.168;4.154;2023-04-25T08:53:31;12.30;99.90
17007;DHT22;8620;51.168;4.154;2023-04-25T08:56:00;12.50;99.90
17007;DHT22;8620;51.168;4.154;2023-04-25T08:58:30;13.00;99.90
17007;DHT22;8620;51.168;4.154;2023-04-25T09:00:57;13.20;99.90
17007;DHT22;8620;51.168;4.154;2023-04-25T09:03:31;13.70;99.90
17007;DHT22;8620;51.168;4.154;2023-04-25T09:05:58;13.70;99.90
17007;DHT22;8620;51.168;4.154;2023-04-25T09:08:24;13.70;99.90
17007;DHT22;8620;51.168;4.154;2023-04-25T09:10:50;12.90;99.90
17007;DHT22;8620;51.168;4.154;2023-04-25T09:13:25;13.10;99.90
17007;DHT22;8620;51.168;4.154;2023-04-25T09:15:57;13.10;99.90
17007;DHT22;8620;51.168;4.154;2023-04-25T09:18:27;13.20;99.90
17007;DHT22;8620;51.168;4.154;2023-04-25T09:21:32;12.50;99.90
17007;DHT22;8620;51.168;4.154;2023-04-25T09:24:00;12.40;99.90
17007;DHT22;8620;51.168;4.154;2023-04-25T09:26:32;12.10;99.90
17007;DHT22;8620;51.168;4.154;2023-04-25T09:29:07;12.40;99.90
17007;DHT22;8620;51.168;4.154;2023-04-25T09:31:33;12.60;99.90
17007;DHT22;8620;51.168;4.154;2023-04-25T09:34:00;12.50;99.90
17007;DHT22;8620;51.168;4.154;2023-04-25T09:36:27;13.10;99.90
17007;DHT22;8620;51.168;4.154;2023-04-25T09:38:53;13.40;99.90
17007;DHT22;8620;51.168;4.154;2023-04-25T09:41:55;13.00;99.90
17007;DHT22;8620;51.168;4.154;2023-04-25T09:44:35;12.70;99.90
17007;DHT22;8620;51.168;4.154;2023-04-25T09:47:39;12.20;99.90
17007;DHT22;8620;51.168;4.154;2023-04-25T09:50:16;11.90;99.90
17007;DHT22;8620;51.168;4.154;2023-04-25T09:52:44;12.00;99.90
17007;DHT22;8620;51.168;4.154;2023-04-25T09:55:11;11.50;99.90
17007;DHT22;8620;51.168;4.154;2023-04-25T09:57:37;11.30;99.90
17007;DHT22;8620;51.168;4.154;2023-04-25T10:00:10;11.50;99.90
17007;DHT22;8620;51.168;4.154;2023-04-25T10:02:47;11.60;99.90
17007;DHT22;8620;51.168;4.154;2023-04-25T10:05:13;11.70;99.90
17007;DHT22;8620;51.168;4.154;2023-04-25T10:07:40;11.60;99.90
17007;DHT22;8620;51.168;4.154;2023-04-25T10:10:09;11.70;99.90
17007;DHT22;8620;51.168;4.154;2023-04-25T10:12:38;12.00;99.90
17007;DHT22;8620;51.168;4.154;2023-04-25T10:15:06;12.00;99.90
17007;DHT22;8620;51.168;4.154;2023-04-25T10:17:35;12.20;99.90
17007;DHT22;8620;51.168;4.154;2023-04-25T10:20:06;12.60;99.90
17007;DHT22;8620;51.168;4.154;2023-04-25T10:33:48;11.60;99.90
17007;DHT22;8620;51.168;4.154;2023-04-25T10:36:36;12.10;99.90
17007;DHT22;8620;51.168;4.154;2023-04-25T10:39:23;12.70;99.90
17007;DHT22;8620;51.168;4.154;2023-04-25T10:45:05;13.50;99.90
17007;DHT22;8620;51.168;4.154;2023-04-25T10:48:13;13.80;99.90
17007;DHT22;8620;51.168;4.154;2023-04-25T10:51:11;13.90;99.90
17007;DHT22;8620;51.168;4.154;2023-04-25T10:53:43;13.90;99.90
17007;DHT22;8620;51.168;4.154;2023-04-25T10:56:19;14.20;99.90
17007;DHT22;8620;51.168;4.154;2023-04-25T10:58:47;13.90;99.90
17007;DHT22;8620;51.168;4.154;2023-04-25T11:01:15;13.50;99.90
17007;DHT22;8620;51.168;4.154;2023-04-25T11:03:45;12.90;99.90
17007;DHT22;8620;51.168;4.154;2023-04-25T11:06:22;13.10;99.90
17007;DHT22;8620;51.168;4.154;2023-04-25T11:08:50;14.00;99.90
17007;DHT22;8620;51.168;4.154;2023-04-25T11:11:19;14.40;99.90
17007;DHT22;8620;51.168;4.154;2023-04-25T11:13:49;15.00;99.90
17007;DHT22;8620;51.168;4.154;2023-04-25T11:16:17;15.10;99.90
17007;DHT22;8620;51.168;4.154;2023-04-25T11:18:44;14.80;99.90
17007;DHT22;8620;51.168;4.154;2023-04-25T11:21:15;14.70;99.90
17007;DHT22;8620;51.168;4.154;2023-04-25T11:23:45;14.50;99.90
17007;DHT22;8620;51.168;4.154;2023-04-25T11:26:13;14.80;99.90
17007;DHT22;8620;51.168;4.154;2023-04-25T11:28:40;14.80;99.90
17007;DHT22;8620;51.168;4.154;2023-04-25T11:31:10;14.80;99.90
17007;DHT22;8620;51.168;4.154;2023-04-25T11:33:36;14.20;99.90
17007;DHT22;8620;51.168;4.154;2023-04-25T11:36:10;13.70;99.90
17007;DHT22;8620;51.168;4.154;2023-04-25T11:38:39;13.60;99.90
17007;DHT22;8620;51.168;4.154;2023-04-25T11:41:06;13.30;99.90
17007;DHT22;8620;51.168;4.154;2023-04-25T11:43:38;13.10;99.90
17007;DHT22;8620;51.168;4.154;2023-04-25T11:46:07;12.80;99.90
17007;DHT22;8620;51.168;4.154;2023-04-25T11:48:40;12.50;99.90
17007;DHT22;8620;51.168;4.154;2023-04-25T11:51:35;12.50;99.90
17007;DHT22;8620;51.168;4.154;2023-04-25T11:54:05;12.90;99.90
17007;DHT22;8620;51.168;4.154;2023-04-25T11:56:33;13.30;99.90
17007;DHT22;8620;51.168;4.154;2023-04-25T11:59:02;13.40;99.90
17007;DHT22;8620;51.168;4.154;2023-04-25T12:01:40;13.60;99.90
17007;DHT22;8620;51.168;4.154;2023-04-25T12:04:19;13.20;99.90
17007;DHT22;8620;51.168;4.154;2023-04-25T12:06:47;13.30;99.90
17007;DHT22;8620;51.168;4.154;2023-04-25T12:09:36;13.10;99.90
17007;DHT22;8620;51.168;4.154;2023-04-25T12:12:01;13.20;99.90
17007;DHT22;8620;51.168;4.154;2023-04-25T12:14:34;13.70;99.90
17007;DHT22;8620;51.168;4.154;2023-04-25T12:17:04;13.80;99.90
17007;DHT22;8620;51.168;4.154;2023-04-25T12:19:37;14.00;99.90
17007;DHT22;8620;51.168;4.154;2023-04-25T12:22:45;14.20;99.90
17007;DHT22;8620;51.168;4.154;2023-04-25T12:25:39;14.20;99.90
17007;DHT22;8620;51.168;4.154;2023-04-25T12:34:10;12.20;99.90
17007;DHT22;8620;51.168;4.154;2023-04-25T12:37:12;11.80;99.90
17007;DHT22;8620;51.168;4.154;2023-04-25T12:40:14;12.00;99.90
17007;DHT22;8620;51.168;4.154;2023-04-25T12:43:20;11.80;99.90
17007;DHT22;8620;51.168;4.154;2023-04-25T12:46:28;11.50;99.90
17007;DHT22;8620;51.168;4.154;2023-04-25T12:48:54;11.80;99.90
17007;DHT22;8620;51.168;4.154;2023-04-25T12:51:20;12.20;99.90
17007;DHT22;8620;51.168;4.154;2023-04-25T12:54:20;12.60;99.90
17007;DHT22;8620;51.168;4.154;2023-04-25T12:57:21;12.30;99.90
17007;DHT22;8620;51.168;4.154;2023-04-25T12:59:47;12.30;99.90
17007;DHT22;8620;51.168;4.154;2023-04-25T13:02:52;12.60;99.90
17007;DHT22;8620;51.168;4.154;2023-04-25T13:05:23;12.90;99.90
17007;DHT22;8620;51.168;4.154;2023-04-25T13:07:49;12.60;99.90
17007;DHT22;8620;51.168;4.154;2023-04-25T13:10:17;12.80;99.90
17007;DHT22;8620;51.168;4.154;2023-04-25T13:12:43;12.60;99.90
17007;DHT22;8620;51.168;4.154;2023-04-25T13:15:10;12.80;99.90
17007;DHT22;8620;51.168;4.154;2023-04-25T13:17:40;12.70;99.90
17007;DHT22;8620;51.168;4.154;2023-04-25T13:20:22;12.60;99.90
17007;DHT22;8620;51.168;4.154;2023-04-25T13:22:48;12.30;99.90
17007;DHT22;8620;51.168;4.154;2023-04-25T13:25:56;12.20;99.90
17007;DHT22;8620;51.168;4.154;2023-04-25T13:28:24;12.30;99.90
17007;DHT22;8620;51.168;4.154;2023-04-25T13:31:02;12.30;99.90
17007;DHT22;8620;51.168;4.154;2023-04-25T13:33:35;12.20;99.90
17007;DHT22;8620;51.168;4.154;2023-04-25T13:36:04;12.00;99.90
17007;DHT22;8620;51.168;4.154;2023-04-25T13:38:30;12.30;99.90
17007;DHT22;8620;51.168;4.154;2023-04-25T13:41:12;12.10;99.90
17007;DHT22;8620;51.168;4.154;2023-04-25T13:43:43;12.40;99.90
17007;DHT22;8620;51.168;4.154;2023-04-25T13:46:29;12.40;99.90
17007;DHT22;8620;51.168;4.154;2023-04-25T13:48:55;12.50;99.90
17007;DHT22;8620;51.168;4.154;2023-04-25T13:51:24;12.40;99.90
17007;DHT22;8620;51.168;4.154;2023-04-25T13:54:29;12.70;99.90
17007;DHT22;8620;51.168;4.154;2023-04-25T14:01:02;12.00;99.90
17007;DHT22;8620;51.168;4.154;2023-04-25T14:03:30;12.20;99.90
17007;DHT22;8620;51.168;4.154;2023-04-25T14:06:05;12.60;99.90
17007;DHT22;8620;51.168;4.154;2023-04-25T14:08:31;12.80;99.90
17007;DHT22;8620;51.168;4.154;2023-04-25T14:10:57;13.00;99.90
17007;DHT22;8620;51.168;4.154;2023-04-25T14:13:58;12.30;99.90
17007;DHT22;8620;51.168;4.154;2023-04-25T14:16:24;12.00;99.90
17007;DHT22;8620;51.168;4.154;2023-04-25T14:18:50;12.10;99.90
17007;DHT22;8620;51.168;4.154;2023-04-25T14:21:16;12.00;99.90
17007;DHT22;8620;51.168;4.154;2023-04-25T14:23:46;12.20;99.90
17007;DHT22;8620;51.168;4.154;2023-04-25T14:26:13;11.80;99.90
17007;DHT22;8620;51.168;4.154;2023-04-25T14:28:39;11.70;99.90
17007;DHT22;8620;51.168;4.154;2023-04-25T14:31:05;11.90;99.90
17007;DHT22;8620;51.168;4.154;2023-04-25T14:33:38;11.70;99.90
17007;DHT22;8620;51.168;4.154;2023-04-25T14:36:08;11.40;99.90
17007;DHT22;8620;51.168;4.154;2023-04-25T14:38:37;11.70;99.90
17007;DHT22;8620;51.168;4.154;2023-04-25T14:41:03;11.90;99.90
17007;DHT22;8620;51.168;4.154;2023-04-25T14:43:29;12.20;99.90
17007;DHT22;8620;51.168;4.154;2023-04-25T14:46:37;12.30;99.90
17007;DHT22;8620;51.168;4.154;2023-04-25T14:49:04;12.10;99.90
17007;DHT22;8620;51.168;4.154;2023-04-25T14:52:14;12.10;99.90
17007;DHT22;8620;51.168;4.154;2023-04-25T14:54:59;12.00;99.90
17007;DHT22;8620;51.168;4.154;2023-04-25T14:57:37;12.30;99.90
17007;DHT22;8620;51.168;4.154;2023-04-25T15:00:06;12.40;99.90
17007;DHT22;8620;51.168;4.154;2023-04-25T15:06:02;12.10;99.90
17007;DHT22;8620;51.168;4.154;2023-04-25T15:08:30;12.00;99.90
17007;DHT22;8620;51.168;4.154;2023-04-25T15:10:57;11.90;99.90
17007;DHT22;8620;51.168;4.154;2023-04-25T15:13:46;12.10;99.90
17007;DHT22;8620;51.168;4.154;2023-04-25T15:19:24;11.70;99.90
17007;DHT22;8620;51.168;4.154;2023-04-25T15:21:50;11.80;99.90
17007;DHT22;8620;51.168;4.154;2023-04-25T15:24:16;12.00;99.90
17007;DHT22;8620;51.168;4.154;2023-04-25T15:26:42;12.10;99.90
17007;DHT22;8620;51.168;4.154;2023-04-25T15:29:08;12.10;99.90
17007;DHT22;8620;51.168;4.154;2023-04-25T15:31:34;11.90;99.90
17007;DHT22;8620;51.168;4.154;2023-04-25T15:33:59;11.80;99.90
17007;DHT22;8620;51.168;4.154;2023-04-25T15:37:00;11.80;99.90
17007;DHT22;8620;51.168;4.154;2023-04-25T15:40:02;11.70;99.90
17007;DHT22;8620;51.168;4.154;2023-04-25T15:45:46;11.70;99.90
17007;DHT22;8620;51.168;4.154;2023-04-25T15:54:57;11.90;99.90
17007;DHT22;8620;51.168;4.154;2023-04-25T15:58:01;11.70;99.90
17007;DHT22;8620;51.168;4.154;2023-04-25T16:01:02;11.70;99.90
17007;DHT22;8620;51.168;4.154;2023-04-25T16:04:09;11.50;99.90
17007;DHT22;8620;51.168;4.154;2023-04-25T16:07:02;11.20;99.90
17007;DHT22;8620;51.168;4.154;2023-04-25T16:10:24;11.30;99.90
17007;DHT22;8620;51.168;4.154;2023-04-25T16:13:45;11.50;99.90
17007;DHT22;8620;51.168;4.154;2023-04-25T16:17:04;11.70;99.90
17007;DHT22;8620;51.168;4.154;2023-04-25T16:19:55;11.90;99.90
17007;DHT22;8620;51.168;4.154;2023-04-25T16:22:57;11.80;99.90
17007;DHT22;8620;51.168;4.154;2023-04-25T16:25:48;11.50;99.90
17007;DHT22;8620;51.168;4.154;2023-04-25T16:32:29;11.50;99.90
17007;DHT22;8620;51.168;4.154;2023-04-25T16:38:43;11.10;99.90
17007;DHT22;8620;51.168;4.154;2023-04-25T16:41:37;11.20;99.90
17007;DHT22;8620;51.168;4.154;2023-04-25T16:44:20;11.20;99.90
17007;DHT22;8620;51.168;4.154;2023-04-25T16:47:04;11.00;99.90
17007;DHT22;8620;51.168;4.154;2023-04-25T16:49:31;11.20;99.90
17007;DHT22;8620;51.168;4.154;2023-04-25T16:51:57;11.10;99.90
17007;DHT22;8620;51.168;4.154;2023-04-25T16:54:41;11.30;99.90
17007;DHT22;8620;51.168;4.154;2023-04-25T16:57:07;11.30;99.90
17007;DHT22;8620;51.168;4.154;2023-04-25T16:59:36;11.40;99.90
17007;DHT22;8620;51.168;4.154;2023-04-25T17:02:21;11.60;99.90
17007;DHT22;8620;51.168;4.154;2023-04-25T17:04:47;11.60;99.90
17007;DHT22;8620;51.168;4.154;2023-04-25T17:07:15;11.30;99.90
17007;DHT22;8620;51.168;4.154;2023-04-25T17:09:51;11.50;99.90
17007;DHT22;8620;51.168;4.154;2023-04-25T17:12:18;11.50;99.90
17007;DHT22;8620;51.168;4.154;2023-04-25T17:14:54;11.50;99.90
17007;DHT22;8620;51.168;4.154;2023-04-25T17:17:20;11.10;99.90
17007;DHT22;8620;51.168;4.154;2023-04-25T17:19:46;10.90;99.90
17007;DHT22;8620;51.168;4.154;2023-04-25T17:22:12;10.80;99.90
17007;DHT22;8620;51.168;4.154;2023-04-25T17:24:38;10.80;99.90
17007;DHT22;8620;51.168;4.154;2023-04-25T17:27:05;10.60;99.90
17007;DHT22;8620;51.168;4.154;2023-04-25T17:29:31;10.70;99.90
17007;DHT22;8620;51.168;4.154;2023-04-25T17:31:58;10.50;99.90
17007;DHT22;8620;51.168;4.154;2023-04-25T17:34:26;10.70;99.90
17007;DHT22;8620;51.168;4.154;2023-04-25T17:36:53;10.60;99.90
17007;DHT22;8620;51.168;4.154;2023-04-25T17:39:56;10.50;99.90
17007;DHT22;8620;51.168;4.154;2023-04-25T17:42:22;10.70;99.90
17007;DHT22;8620;51.168;4.154;2023-04-25T17:44:48;10.90;99.90
17007;DHT22;8620;51.168;4.154;2023-04-25T17:47:15;10.60;99.90
17007;DHT22;8620;51.168;4.154;2023-04-25T17:49:41;10.40;99.90
17007;DHT22;8620;51.168;4.154;2023-04-25T17:52:07;10.50;99.90
17007;DHT22;8620;51.168;4.154;2023-04-25T17:54:34;10.30;99.90
17007;DHT22;8620;51.168;4.154;2023-04-25T17:57:00;10.40;99.90
17007;DHT22;8620;51.168;4.154;2023-04-25T17:59:27;10.60;99.90
17007;DHT22;8620;51.168;4.154;2023-04-25T18:01:53;10.60;99.90
17007;DHT22;8620;51.168;4.154;2023-04-25T18:04:18;10.80;99.90
17007;DHT22;8620;51.168;4.154;2023-04-25T18:06:50;10.60;99.90
17007;DHT22;8620;51.168;4.154;2023-04-25T18:09:16;10.30;99.90
17007;DHT22;8620;51.168;4.154;2023-04-25T18:11:45;10.40;99.90
17007;DHT22;8620;51.168;4.154;2023-04-25T18:14:20;10.40;99.90
17007;DHT22;8620;51.168;4.154;2023-04-25T18:16:50;10.50;99.90
17007;DHT22;8620;51.168;4.154;2023-04-25T18:19:18;10.40;99.90
17007;DHT22;8620;51.168;4.154;2023-04-25T18:25:55;9.90;99.90
17007;DHT22;8620;51.168;4.154;2023-04-25T18:28:21;10.00;99.90
17007;DHT22;8620;51.168;4.154;2023-04-25T18:30:47;9.80;99.90
17007;DHT22;8620;51.168;4.154;2023-04-25T18:33:15;9.90;99.90
17007;DHT22;8620;51.168;4.154;2023-04-25T18:35:40;9.80;99.90
17007;DHT22;8620;51.168;4.154;2023-04-25T18:38:09;9.90;99.90
17007;DHT22;8620;51.168;4.154;2023-04-25T18:41:01;9.70;99.90
17007;DHT22;8620;51.168;4.154;2023-04-25T18:43:27;9.90;99.90
17007;DHT22;8620;51.168;4.154;2023-04-25T18:45:54;9.90;99.90
17007;DHT22;8620;51.168;4.154;2023-04-25T18:48:58;9.80;99.90
17007;DHT22;8620;51.168;4.154;2023-04-25T18:52:00;9.80;99.90
17007;DHT22;8620;51.168;4.154;2023-04-25T18:55:07;9.80;99.90
17007;DHT22;8620;51.168;4.154;2023-04-25T18:58:04;9.90;99.90
17007;DHT22;8620;51.168;4.154;2023-04-25T19:00:50;9.70;99.90
17007;DHT22;8620;51.168;4.154;2023-04-25T19:03:18;9.80;99.90
17007;DHT22;8620;51.168;4.154;2023-04-25T19:05:47;9.50;99.90
17007;DHT22;8620;51.168;4.154;2023-04-25T19:08:13;9.60;99.90
17007;DHT22;8620;51.168;4.154;2023-04-25T19:10:42;9.60;99.90
17007;DHT22;8620;51.168;4.154;2023-04-25T19:13:26;9.40;99.90
17007;DHT22;8620;51.168;4.154;2023-04-25T19:16:17;9.40;99.90
17007;DHT22;8620;51.168;4.154;2023-04-25T19:18:46;9.30;99.90
17007;DHT22;8620;51.168;4.154;2023-04-25T19:21:16;9.30;99.90
17007;DHT22;8620;51.168;4.154;2023-04-25T19:24:17;9.50;99.90
17007;DHT22;8620;51.168;4.154;2023-04-25T19:26:57;9.60;99.90
17007;DHT22;8620;51.168;4.154;2023-04-25T19:29:51;9.60;99.90
17007;DHT22;8620;51.168;4.154;2023-04-25T19:32:40;9.70;99.90
17007;DHT22;8620;51.168;4.154;2023-04-25T19:35:06;9.40;99.90
17007;DHT22;8620;51.168;4.154;2023-04-25T19:37:55;9.40;99.90
17007;DHT22;8620;51.168;4.154;2023-04-25T19:40:29;9.30;99.90
17007;DHT22;8620;51.168;4.154;2023-04-25T19:43:33;9.30;99.90
17007;DHT22;8620;51.168;4.154;2023-04-25T19:46:17;9.20;99.90
17007;DHT22;8620;51.168;4.154;2023-04-25T19:48:50;9.20;99.90
17007;DHT22;8620;51.168;4.154;2023-04-25T19:51:29;9.10;99.90
17007;DHT22;8620;51.168;4.154;2023-04-25T19:54:05;9.10;99.90
17007;DHT22;8620;51.168;4.154;2023-04-25T19:56:51;9.10;99.90
17007;DHT22;8620;51.168;4.154;2023-04-25T19:59:18;9.20;99.90
17007;DHT22;8620;51.168;4.154;2023-04-25T20:02:23;8.90;99.90
17007;DHT22;8620;51.168;4.154;2023-04-25T20:04:52;8.90;99.90
17007;DHT22;8620;51.168;4.154;2023-04-25T20:07:18;9.10;99.90
17007;DHT22;8620;51.168;4.154;2023-04-25T20:09:48;9.30;99.90
17007;DHT22;8620;51.168;4.154;2023-04-25T20:12:15;9.40;99.90
17007;DHT22;8620;51.168;4.154;2023-04-25T20:14:42;9.10;99.90
17007;DHT22;8620;51.168;4.154;2023-04-25T20:17:09;9.00;99.90
17007;DHT22;8620;51.168;4.154;2023-04-25T20:19:37;8.90;99.90
17007;DHT22;8620;51.168;4.154;2023-04-25T20:22:03;8.90;99.90
17007;DHT22;8620;51.168;4.154;2023-04-25T20:24:29;8.70;99.90
17007;DHT22;8620;51.168;4.154;2023-04-25T20:26:56;8.50;99.90
17007;DHT22;8620;51.168;4.154;2023-04-25T20:29:23;8.40;99.90
17007;DHT22;8620;51.168;4.154;2023-04-25T20:31:51;8.40;99.90
17007;DHT22;8620;51.168;4.154;2023-04-25T20:34:18;8.40;99.90
17007;DHT22;8620;51.168;4.154;2023-04-25T20:36:46;8.40;99.90
17007;DHT22;8620;51.168;4.154;2023-04-25T20:39:13;8.30;99.90
17007;DHT22;8620;51.168;4.154;2023-04-25T20:41:40;8.40;99.90
17007;DHT22;8620;51.168;4.154;2023-04-25T20:44:06;8.30;99.90
17007;DHT22;8620;51.168;4.154;2023-04-25T20:46:34;8.30;99.90
17007;DHT22;8620;51.168;4.154;2023-04-25T20:49:19;8.30;99.90
17007;DHT22;8620;51.168;4.154;2023-04-25T20:51:45;8.30;99.90
17007;DHT22;8620;51.168;4.154;2023-04-25T20:54:12;8.20;99.90
17007;DHT22;8620;51.168;4.154;2023-04-25T20:56:38;8.20;99.90
